Create Tblcommutelog Verified Points Advance Search
| # | Trip ID | Id Commuter | Trip Date | Trip Num | Current Lat | Current Lng | Delta Distance | Current Time | Activity | Activity Confidence | Current Speed | |
|---|---|---|---|---|---|---|---|---|---|---|---|---|
| 70721 | 251015_107574_16513620_0737 | 107574 | (not set) | (not set) | 39.008789593854 | -77.051604083811 | 1.2029 | 2025-10-15 07:41:19 | in_vehicle | 100 | -0.44703925898772 | |
| 70722 | 251015_780789_16421763_0723 | 780789 | (not set) | (not set) | 38.799931207619 | -77.58902393176 | 9.7297 | 2025-10-15 07:41:20 | unknown | 100 | 0.50068397006625 | |
| 70723 | 251015_780810_6461772_0703 | 780810 | (not set) | (not set) | 38.980382630207 | -77.096076219211 | 4.932 | 2025-10-15 07:41:20 | on_bicycle | 100 | 2.9683406796785 | |
| 70724 | 251015_780810_6461772_0703 | 780810 | (not set) | (not set) | 38.980382630207 | -77.096076219211 | 4.932 | 2025-10-15 07:41:20 | on_bicycle | 100 | 2.9683406796785 | |
| 70725 | 251015_738572_16489587_0702 | 738572 | (not set) | (not set) | 38.889900765003 | -76.937130389344 | 17.9874 | 2025-10-15 07:41:21 | in_vehicle | 100 | 4.8101424267079 | |
| 70726 | 251015_788537_16416993_0654 | 788537 | (not set) | (not set) | 39.300979892685 | -76.614247883018 | 20.8855 | 2025-10-15 07:41:21 | on_foot | 100 | 5.0381324487917 | |
| 70727 | 251015_745514_16489587_0616 | 745514 | (not set) | (not set) | 38.852882252963 | -76.985023909201 | 53.5749 | 2025-10-15 07:41:21 | in_vehicle | 100 | 9.432528364641 | |
| 70728 | 251015_745514_16489587_0616 | 745514 | (not set) | (not set) | 38.852882252963 | -76.985023909201 | 53.5749 | 2025-10-15 07:41:21 | in_vehicle | 100 | 9.432528364641 | |
| 70729 | 251015_745514_16489587_0616 | 745514 | (not set) | (not set) | 38.852882252963 | -76.985023909201 | 53.5749 | 2025-10-15 07:41:21 | in_vehicle | 100 | 9.432528364641 | |
| 70730 | 251015_785147_16514010_0732 | 785147 | (not set) | (not set) | 39.094327566667 | -78.10287375 | 5.4356 | 2025-10-15 07:41:22 | in_vehicle | 100 | 12.441102577628 | |
| 70731 | 251015_786871_16483549_0726 | 786871 | (not set) | (not set) | 39.40627201555 | -76.761311667178 | 4.1879 | 2025-10-15 07:41:24 | in_vehicle | 100 | 3.1248044203242 | |
| 70732 | 251015_777375_16513753_0705 | 777375 | (not set) | (not set) | 39.055115991083 | -76.73616968561 | 12.879 | 2025-10-15 07:41:24 | unknown | 100 | 17.801103292891 | |
| 70733 | 251015_789307_16516032_0719 | 789307 | (not set) | (not set) | 39.0189544 | -76.9886978 | 10.1085 | 2025-10-15 07:41:24 | still | 33 | 6.9469900846692 | |
| 70734 | 251015_784923_16478950_0639 | 784923 | (not set) | (not set) | 38.850412439775 | -76.971703052479 | 18.1742 | 2025-10-15 07:41:25 | unknown | 100 | 3.1918603091724 | |
| 70735 | 251015_112979_16515973_0702 | 112979 | (not set) | (not set) | 38.844419485562 | -77.071726572244 | 4.0971 | 2025-10-15 07:41:25 | unknown | 100 | 6.0260892111545 | |
| 70736 | 251015_767309_6423049_0739 | 767309 | (not set) | (not set) | 38.90128841576 | -77.041510427827 | 0.1369 | 2025-10-15 07:41:25 | on_foot | 100 | 0.75102595509938 | |
| 70737 | 251015_775422_16511560_0740 | 775422 | (not set) | (not set) | 38.924384044585 | -77.196946509051 | 0.9186 | 2025-10-15 07:41:26 | in_vehicle | 100 | 12.405339436909 | |
| 70738 | 251015_787865_6461772_0733 | 787865 | (not set) | (not set) | 38.990393701995 | -76.928226045672 | 0.4118 | 2025-10-15 07:41:26 | on_foot | 100 | 0.73314438473987 | |
| 70739 | 251015_787865_6461772_0733 | 787865 | (not set) | (not set) | 38.990393701995 | -76.928226045672 | 0.4118 | 2025-10-15 07:41:26 | on_foot | 100 | 0.73314438473987 | |
| 70740 | 251015_784718_16491204_0737 | 784718 | (not set) | (not set) | 39.146651315095 | -77.416531827006 | 0.2572 | 2025-10-15 07:41:26 | in_vehicle | 100 | 5.2169481523867 |